createdAt,value
2023-01-09T00:01:21.143Z,45.90
2023-01-09T00:06:28.408Z,43.60
2023-01-09T00:11:35.571Z,41.50
2023-01-09T00:16:45.029Z,45.20
2023-01-09T00:21:52.100Z,45.30
2023-01-09T00:26:59.308Z,43.10
2023-01-09T00:32:10.321Z,42.90
2023-01-09T00:37:17.441Z,40.90
2023-01-09T00:42:27.498Z,42.60
2023-01-09T00:47:38.278Z,43.50
2023-01-09T00:52:47.800Z,42.20
2023-01-09T00:57:54.936Z,42.20
2023-01-09T01:03:02.237Z,43.60
2023-01-09T01:08:14.994Z,43.40
2023-01-09T01:13:22.108Z,41.30
2023-01-09T01:18:29.203Z,39.80
2023-01-09T01:23:37.204Z,39.50
2023-01-09T01:28:44.835Z,40.40
2023-01-09T01:33:51.939Z,40.20
2023-01-09T01:38:59.091Z,45.60
2023-01-09T01:44:27.608Z,40.00
2023-01-09T01:49:34.765Z,36.10
2023-01-09T01:54:42.879Z,40.60
2023-01-09T01:59:55.726Z,39.70
2023-01-09T02:05:04.331Z,43.80
2023-01-09T02:10:12.861Z,42.00
2023-01-09T02:15:20.873Z,41.20
2023-01-09T02:26:14.535Z,40.90
2023-01-09T02:31:25.688Z,38.90
2023-01-09T02:36:41.944Z,42.40
2023-01-09T02:41:55.203Z,42.20
2023-01-09T02:47:07.437Z,42.00
2023-01-09T02:52:33.728Z,40.10
2023-01-09T02:57:55.756Z,42.90
2023-01-09T03:03:11.484Z,41.80
2023-01-09T03:08:22.523Z,42.40
2023-01-09T03:13:35.157Z,39.60
2023-01-09T03:18:43.760Z,40.80
2023-01-09T03:23:56.526Z,39.60
2023-01-09T03:29:03.941Z,41.60
2023-01-09T03:34:12.213Z,41.20
2023-01-09T03:39:19.382Z,41.10
2023-01-09T03:44:26.801Z,40.90
2023-01-09T03:49:33.925Z,43.60
2023-01-09T03:54:41.061Z,44.50
2023-01-09T03:59:48.222Z,40.00
2023-01-09T04:04:55.410Z,42.30
2023-01-09T04:10:02.595Z,41.00
2023-01-09T04:15:11.207Z,39.90
2023-01-09T04:20:18.640Z,40.80
2023-01-09T04:25:25.749Z,39.80
2023-01-09T04:30:33.035Z,39.30
2023-01-09T04:35:40.196Z,43.10
2023-01-09T04:40:49.717Z,37.30
2023-01-09T04:45:56.902Z,40.60
2023-01-09T04:51:06.637Z,40.80
2023-01-09T04:56:13.902Z,42.40
2023-01-09T05:01:21.126Z,43.70
2023-01-09T05:06:28.370Z,42.40
2023-01-09T05:11:35.626Z,43.90
2023-01-09T05:16:42.888Z,43.60
2023-01-09T05:21:50.031Z,41.80
2023-01-09T05:26:57.286Z,42.60
2023-01-09T05:32:07.027Z,46.20
2023-01-09T05:37:14.258Z,46.60
2023-01-09T05:42:21.568Z,46.50
2023-01-09T05:47:28.779Z,48.90
2023-01-09T05:52:35.966Z,45.80
2023-01-09T05:57:43.167Z,46.50
2023-01-09T06:02:50.477Z,47.70
2023-01-09T06:08:00.279Z,50.00
2023-01-09T06:13:07.567Z,48.30
2023-01-09T06:18:28.517Z,48.40
2023-01-09T06:23:36.134Z,48.80
2023-01-09T06:28:44.924Z,46.20
2023-01-09T06:33:52.355Z,50.80
2023-01-09T06:38:59.541Z,46.30
2023-01-09T06:44:06.706Z,52.60
2023-01-09T06:49:14.326Z,48.90
2023-01-09T06:54:23.419Z,55.90
2023-01-09T06:59:31.675Z,57.80
2023-01-09T07:04:39.469Z,50.80
2023-01-09T07:09:46.748Z,49.00
2023-01-09T07:14:55.215Z,49.80
2023-01-09T07:20:03.926Z,48.10
2023-01-09T07:25:42.183Z,45.20
2023-01-09T07:31:08.761Z,43.20
2023-01-09T07:36:16.448Z,43.90
2023-01-09T07:41:23.868Z,47.60
2023-01-09T07:46:34.280Z,44.50
2023-01-09T07:51:43.398Z,46.50
2023-01-09T07:56:50.643Z,48.80
2023-01-09T08:02:01.610Z,51.20
2023-01-09T08:07:09.316Z,50.50
2023-01-09T08:12:16.600Z,51.30
2023-01-09T08:17:26.663Z,53.00
2023-01-09T08:22:34.042Z,52.50
2023-01-09T08:27:41.270Z,55.50
2023-01-09T08:32:52.279Z,51.70
2023-01-09T08:37:59.526Z,54.50
2023-01-09T08:43:24.964Z,44.70
2023-01-09T08:48:32.079Z,56.90
2023-01-09T08:53:39.477Z,56.10
2023-01-09T08:58:48.334Z,58.30
2023-01-09T09:03:56.066Z,55.10
2023-01-09T09:09:03.989Z,51.90
2023-01-09T09:14:28.807Z,54.50
2023-01-09T09:19:36.199Z,51.40
2023-01-09T09:24:50.149Z,54.60
2023-01-09T09:29:57.478Z,55.40
2023-01-09T09:35:08.495Z,53.50
2023-01-09T09:40:22.127Z,57.30
2023-01-09T09:45:45.216Z,55.10
2023-01-09T09:51:13.909Z,53.70
2023-01-09T09:56:24.701Z,55.40
2023-01-09T10:01:39.419Z,56.20
2023-01-09T10:06:48.757Z,55.50
2023-01-09T10:12:01.368Z,50.90
2023-01-09T10:17:21.914Z,53.20
2023-01-09T10:22:37.535Z,54.30
2023-01-09T10:28:01.193Z,53.70
2023-01-09T10:33:27.822Z,54.70
2023-01-09T10:38:40.084Z,57.70
2023-01-09T10:43:52.986Z,52.80
2023-01-09T10:49:05.466Z,55.40
2023-01-09T10:54:18.620Z,50.20
2023-01-09T10:59:26.423Z,52.80
2023-01-09T11:04:43.640Z,49.60
2023-01-09T11:10:03.236Z,54.50
2023-01-09T11:15:32.049Z,55.30
2023-01-09T11:20:39.536Z,51.20
2023-01-09T11:25:55.629Z,53.00
2023-01-09T11:31:03.981Z,52.80
2023-01-09T11:36:17.682Z,52.20
2023-01-09T11:41:28.285Z,51.50
2023-01-09T11:46:38.650Z,51.60
2023-01-09T11:52:05.346Z,54.20
2023-01-09T11:57:14.059Z,52.50
2023-01-09T12:02:42.757Z,52.10
2023-01-09T12:08:08.934Z,52.10
2023-01-09T12:13:31.736Z,56.10
2023-01-09T12:18:52.806Z,52.10
2023-01-09T12:25:00.002Z,54.20
2023-01-09T12:30:33.547Z,52.60
2023-01-09T12:35:47.242Z,55.30
2023-01-09T12:41:36.986Z,52.70
2023-01-09T12:46:56.054Z,53.10
2023-01-09T12:52:11.207Z,53.20
2023-01-09T12:57:24.769Z,53.10
2023-01-09T13:02:36.713Z,52.90
2023-01-09T13:07:47.571Z,51.20
2023-01-09T13:12:59.136Z,55.00
2023-01-09T13:18:13.452Z,57.00
2023-01-09T13:23:29.936Z,54.90
2023-01-09T13:28:42.436Z,55.10
2023-01-09T13:33:55.445Z,54.40
2023-01-09T13:39:03.952Z,53.60
2023-01-09T13:44:28.650Z,50.90
2023-01-09T13:50:15.967Z,56.70
2023-01-09T13:55:36.447Z,55.70
2023-01-09T14:00:55.852Z,55.20
2023-01-09T14:06:29.811Z,58.00
2023-01-09T14:11:37.927Z,58.70
2023-01-09T14:16:45.835Z,54.90
2023-01-09T14:21:56.351Z,55.40
2023-01-09T14:27:04.389Z,53.80
2023-01-09T14:32:57.539Z,54.50
2023-01-09T14:38:15.228Z,55.60
2023-01-09T14:43:29.567Z,55.20
2023-01-09T14:48:38.756Z,52.80
2023-01-09T14:53:47.111Z,52.70
2023-01-09T14:59:12.714Z,57.10
2023-01-09T15:04:36.798Z,55.50
2023-01-09T15:09:52.848Z,54.10
2023-01-09T15:15:02.590Z,52.60
2023-01-09T15:20:18.915Z,53.90
2023-01-09T15:25:44.630Z,52.00
2023-01-09T15:30:58.522Z,54.90
2023-01-09T15:36:15.165Z,55.10
2023-01-09T15:41:45.647Z,56.20
2023-01-09T15:46:53.347Z,52.10
2023-01-09T15:52:03.008Z,52.50
2023-01-09T15:57:34.329Z,52.40
2023-01-09T16:03:04.999Z,51.10
2023-01-09T16:08:24.697Z,54.50
2023-01-09T16:13:35.370Z,54.00
2023-01-09T16:18:53.347Z,56.30
2023-01-09T16:29:38.975Z,58.10
2023-01-09T16:34:48.701Z,53.50
2023-01-09T16:40:32.375Z,53.80
2023-01-09T16:45:53.437Z,52.30
2023-01-09T16:51:08.835Z,54.90
2023-01-09T16:56:27.914Z,58.30
2023-01-09T17:01:46.988Z,55.90
2023-01-09T17:07:26.158Z,55.30
2023-01-09T17:12:38.823Z,54.70
2023-01-09T17:18:23.231Z,51.30
2023-01-09T17:23:34.543Z,55.30
2023-01-09T17:29:37.242Z,56.70
2023-01-09T17:35:27.327Z,55.00
2023-01-09T17:40:44.676Z,53.40
2023-01-09T17:46:02.259Z,49.00
2023-01-09T17:51:11.764Z,48.20
2023-01-09T17:56:21.398Z,51.80
2023-01-09T18:01:29.021Z,53.30
2023-01-09T18:06:38.195Z,51.30
2023-01-09T18:11:47.757Z,51.50
2023-01-09T18:16:55.062Z,52.50
2023-01-09T18:22:10.241Z,49.00
2023-01-09T18:27:25.120Z,52.00
2023-01-09T18:32:32.641Z,50.30
2023-01-09T18:37:40.344Z,56.50
2023-01-09T18:42:48.761Z,58.80
2023-01-09T18:47:56.838Z,60.30
2023-01-09T18:53:06.581Z,61.80
2023-01-09T18:58:13.898Z,56.40
2023-01-09T19:03:22.950Z,57.20
2023-01-09T19:08:31.650Z,61.00
2023-01-09T19:13:43.457Z,61.70
2023-01-09T19:18:51.580Z,60.30
2023-01-09T19:24:02.535Z,64.30
2023-01-09T19:29:10.003Z,62.90
2023-01-09T19:34:18.111Z,59.40
2023-01-09T19:44:32.754Z,57.20
2023-01-09T19:49:42.169Z,62.20
2023-01-09T19:54:49.650Z,59.10
2023-01-09T19:59:57.797Z,58.50
2023-01-09T20:05:05.198Z,56.20
2023-01-09T20:10:14.287Z,54.10
2023-01-09T20:15:22.964Z,54.10
2023-01-09T20:20:30.300Z,51.30
2023-01-09T20:25:37.558Z,58.90
2023-01-09T20:30:45.941Z,51.60
2023-01-09T20:35:53.203Z,51.60
2023-01-09T20:41:07.498Z,50.30
2023-01-09T20:46:14.666Z,48.10
2023-01-09T20:51:24.479Z,47.70
2023-01-09T20:56:33.432Z,45.00
2023-01-09T21:01:41.568Z,43.90
2023-01-09T21:06:50.190Z,44.10
2023-01-09T21:11:58.039Z,41.20
2023-01-09T21:17:05.729Z,44.60
2023-01-09T21:22:12.989Z,41.30
2023-01-09T21:27:20.856Z,43.50
2023-01-09T21:37:36.131Z,36.80
2023-01-09T21:43:01.151Z,38.80
2023-01-09T21:48:09.301Z,39.80
2023-01-09T21:53:18.774Z,38.50
2023-01-09T21:58:27.323Z,37.80
2023-01-09T22:03:34.652Z,36.00
2023-01-09T22:08:42.209Z,35.40
2023-01-09T22:13:52.288Z,35.90
2023-01-09T22:19:00.382Z,35.00
2023-01-09T22:24:08.487Z,37.70
2023-01-09T22:29:16.274Z,38.00
2023-01-09T22:34:23.925Z,35.30
2023-01-09T22:39:31.569Z,33.90
2023-01-09T22:44:38.994Z,35.80
2023-01-09T22:49:52.713Z,34.40
2023-01-09T22:55:00.442Z,36.10
2023-01-09T23:00:09.727Z,37.50
2023-01-09T23:05:19.797Z,35.70
2023-01-09T23:10:26.986Z,34.20
2023-01-09T23:15:34.242Z,33.00
2023-01-09T23:20:41.644Z,35.40
2023-01-09T23:25:52.539Z,36.50
2023-01-09T23:30:59.690Z,34.90
2023-01-09T23:36:07.851Z,34.70
2023-01-09T23:41:15.136Z,29.80
2023-01-09T23:46:22.273Z,31.70
2023-01-09T23:51:29.601Z,33.60
2023-01-09T23:56:36.853Z,34.40
